createdAt,value
2023-01-03T07:17:01.512Z,6.87
2023-01-03T07:19:38.991Z,6.86
2023-01-03T07:22:15.922Z,6.89
2023-01-03T07:24:53.190Z,6.86
2023-01-03T07:27:30.142Z,6.87
2023-01-03T07:30:08.334Z,6.90
2023-01-03T07:32:49.427Z,6.90
2023-01-03T07:35:26.916Z,6.89
2023-01-03T07:38:04.149Z,6.87
2023-01-03T07:40:41.521Z,6.95
2023-01-03T07:43:30.581Z,6.89
2023-01-03T07:46:13.862Z,6.87
2023-01-03T07:48:55.459Z,6.87
2023-01-03T07:51:33.122Z,6.81
2023-01-03T07:54:10.347Z,6.83
2023-01-03T07:56:47.832Z,6.80
2023-01-03T07:59:24.691Z,6.78
2023-01-03T08:02:02.656Z,6.80
2023-01-03T08:04:42.354Z,6.81
2023-01-03T08:07:19.852Z,6.83
2023-01-03T08:10:09.003Z,6.86
2023-01-03T08:12:58.550Z,6.90
2023-01-03T08:15:35.838Z,6.88
2023-01-03T08:18:13.161Z,6.96
2023-01-03T08:20:55.832Z,6.97
2023-01-03T08:23:34.094Z,7.03
2023-01-03T08:26:13.877Z,7.03
2023-01-03T08:28:51.318Z,7.06
2023-01-03T08:31:32.863Z,7.12
2023-01-03T08:34:19.708Z,7.12
2023-01-03T08:37:05.415Z,7.22
2023-01-03T08:39:46.354Z,7.21
2023-01-03T08:42:26.057Z,7.25
2023-01-03T08:45:08.036Z,7.26
2023-01-03T08:47:46.163Z,7.26
2023-01-03T08:50:24.392Z,7.26
2023-01-03T08:53:05.570Z,7.29
2023-01-03T08:55:43.019Z,7.28
2023-01-03T08:58:20.081Z,7.40
2023-01-03T09:00:57.490Z,7.36
2023-01-03T09:03:34.572Z,7.39
2023-01-03T09:06:12.379Z,7.41
2023-01-03T09:08:52.059Z,7.44
2023-01-03T09:11:29.422Z,7.43
2023-01-03T09:14:06.361Z,7.38
2023-01-03T09:16:48.699Z,7.43
2023-01-03T09:19:26.667Z,7.42
2023-01-03T09:22:04.060Z,7.43
2023-01-03T09:24:43.906Z,7.42
2023-01-03T09:27:21.649Z,7.46
2023-01-03T09:29:58.628Z,7.45
2023-01-03T09:32:35.897Z,7.38
2023-01-03T09:35:13.687Z,7.42
2023-01-03T09:37:51.817Z,7.40
2023-01-03T09:40:33.139Z,7.45
2023-01-03T09:43:23.139Z,7.43
2023-01-03T09:46:02.533Z,7.47
2023-01-03T09:48:43.398Z,7.50
2023-01-03T09:51:37.453Z,7.44
2023-01-03T09:54:32.258Z,7.49
2023-01-03T09:57:29.568Z,7.53
2023-01-03T10:00:27.628Z,7.50
2023-01-03T10:03:42.076Z,7.66
2023-01-03T10:06:38.808Z,7.85
2023-01-03T10:09:31.873Z,7.89
2023-01-03T10:12:23.736Z,7.83
2023-01-03T10:15:21.479Z,7.94
2023-01-03T10:18:08.766Z,7.86
2023-01-03T10:20:51.720Z,7.89
2023-01-03T10:23:28.993Z,7.98
2023-01-03T10:26:11.872Z,8.07
2023-01-03T10:28:52.535Z,8.14
2023-01-03T10:31:48.650Z,8.27
2023-01-03T10:34:25.982Z,8.39
2023-01-03T10:37:02.962Z,8.43
2023-01-03T10:39:41.985Z,8.48
2023-01-03T10:42:22.551Z,8.50
2023-01-03T10:45:08.852Z,8.49
2023-01-03T10:47:46.577Z,8.44
2023-01-03T10:50:27.580Z,8.32
2023-01-03T10:53:10.167Z,8.08
2023-01-03T10:55:54.850Z,7.93
2023-01-03T10:58:36.561Z,7.89
2023-01-03T11:01:27.105Z,7.75
2023-01-03T11:04:20.246Z,7.79
2023-01-03T11:07:06.197Z,7.68
2023-01-03T11:09:52.066Z,7.58
2023-01-03T11:12:38.416Z,7.57
2023-01-03T11:15:22.051Z,7.50
2023-01-03T11:18:04.241Z,7.53
2023-01-03T11:20:53.109Z,7.45
2023-01-03T11:24:00.923Z,7.53
2023-01-03T11:26:50.823Z,7.38
2023-01-03T11:30:13.407Z,7.47
2023-01-03T11:33:15.751Z,7.47
2023-01-03T11:36:30.058Z,7.45
2023-01-03T11:39:26.527Z,7.45
2023-01-03T11:42:26.871Z,7.46
2023-01-03T11:45:27.502Z,7.45
2023-01-03T11:48:43.104Z,7.46
2023-01-03T11:51:29.863Z,7.37
2023-01-03T11:54:15.293Z,7.40
2023-01-03T11:56:54.363Z,7.36
2023-01-03T11:59:57.719Z,7.41
2023-01-03T12:03:09.042Z,7.39
2023-01-03T12:05:54.801Z,7.35
2023-01-03T12:09:14.482Z,7.39
2023-01-03T12:12:35.030Z,7.32
2023-01-03T12:15:22.360Z,7.30
2023-01-03T12:18:07.139Z,7.28
2023-01-03T12:20:52.391Z,7.27
2023-01-03T12:23:44.170Z,7.30
2023-01-03T12:26:21.163Z,7.33
2023-01-03T12:29:07.491Z,7.29
2023-01-03T12:31:51.426Z,7.32
2023-01-03T12:34:36.040Z,7.35
2023-01-03T12:37:21.994Z,7.32
2023-01-03T12:40:03.477Z,7.32
2023-01-03T12:42:46.897Z,7.30
2023-01-03T12:45:40.243Z,7.32
2023-01-03T12:48:44.500Z,7.25
2023-01-03T12:51:25.486Z,7.15
2023-01-03T12:54:20.801Z,7.20
2023-01-03T12:57:35.919Z,7.12
2023-01-03T13:00:31.093Z,7.15
2023-01-03T13:03:18.787Z,7.14
2023-01-03T13:06:01.930Z,7.05
2023-01-03T13:08:46.585Z,7.01
2023-01-03T13:11:32.362Z,7.05
2023-01-03T13:14:22.493Z,6.95
2023-01-03T13:17:07.948Z,6.95
2023-01-03T13:20:02.647Z,6.99
2023-01-03T13:22:54.712Z,6.98
2023-01-03T13:25:44.576Z,6.99
2023-01-03T13:28:37.985Z,6.98
2023-01-03T13:31:44.794Z,6.98
2023-01-03T13:34:35.628Z,6.90
2023-01-03T13:37:23.668Z,6.85
2023-01-03T13:41:07.491Z,6.89
2023-01-03T13:43:40.101Z,6.88
2023-01-03T13:46:28.018Z,6.85
2023-01-03T13:49:08.168Z,6.82
2023-01-03T13:51:54.548Z,6.84
2023-01-03T13:55:01.660Z,6.83
2023-01-03T13:57:56.573Z,6.86
2023-01-03T14:00:37.452Z,6.77
2023-01-03T14:04:00.299Z,6.82
2023-01-03T14:07:13.135Z,6.83
2023-01-03T14:10:24.964Z,6.86
2023-01-03T14:13:39.448Z,6.82
2023-01-03T14:16:29.395Z,6.79
2023-01-03T14:19:15.869Z,6.76
2023-01-03T14:22:14.075Z,6.75
2023-01-03T14:25:00.074Z,6.66
2023-01-03T14:27:43.084Z,6.61
2023-01-03T14:30:26.287Z,6.58
2023-01-03T14:33:06.592Z,6.60
2023-01-03T14:35:45.822Z,6.56
2023-01-03T14:38:27.358Z,6.46
2023-01-03T14:41:05.716Z,6.51
2023-01-03T14:43:43.776Z,6.49
2023-01-03T14:46:21.378Z,6.40
2023-01-03T14:49:06.397Z,6.42
2023-01-03T14:51:44.557Z,6.35
2023-01-03T14:54:23.861Z,6.38
2023-01-03T14:57:05.196Z,6.38
2023-01-03T14:59:42.380Z,6.41
2023-01-03T15:02:20.672Z,6.39
2023-01-03T15:05:06.220Z,6.34
2023-01-03T15:07:45.960Z,6.45
2023-01-03T15:10:33.591Z,6.47
2023-01-03T15:13:22.910Z,6.51
2023-01-03T15:16:02.357Z,6.48
2023-01-03T15:18:49.025Z,6.56
2023-01-03T15:21:28.808Z,6.53
2023-01-03T15:24:06.812Z,6.56
2023-01-03T15:26:46.602Z,6.58
2023-01-03T15:29:26.484Z,6.58
2023-01-03T15:32:05.041Z,6.46
2023-01-03T15:34:45.276Z,6.52
2023-01-03T15:37:28.135Z,6.57
2023-01-03T15:40:09.423Z,6.50
2023-01-03T15:43:00.773Z,6.55
2023-01-03T15:45:42.670Z,6.48
2023-01-03T15:48:26.701Z,6.51
2023-01-03T15:51:05.614Z,6.47
2023-01-03T15:53:46.689Z,6.43
2023-01-03T15:56:27.001Z,6.51
2023-01-03T15:59:10.937Z,6.49
2023-01-03T16:01:49.003Z,6.48
2023-01-03T16:04:27.422Z,6.45
2023-01-03T16:07:05.318Z,6.47
2023-01-03T16:09:45.979Z,6.45
2023-01-03T16:12:34.357Z,6.38
2023-01-03T16:15:20.965Z,6.31
2023-01-03T16:17:58.451Z,6.29
2023-01-03T16:20:35.640Z,6.19
2023-01-03T16:23:31.152Z,6.17
2023-01-03T16:26:11.492Z,6.09
2023-01-03T16:28:49.591Z,6.05
2023-01-03T16:31:33.678Z,5.97
2023-01-03T16:34:19.152Z,5.91
2023-01-03T16:36:58.392Z,5.85
2023-01-03T16:39:36.333Z,5.86
2023-01-03T16:42:18.263Z,5.83
2023-01-03T16:44:55.856Z,5.70
2023-01-03T16:47:36.650Z,5.78
2023-01-03T16:50:19.940Z,5.72
2023-01-03T16:52:59.458Z,5.78
2023-01-03T16:55:42.232Z,5.68
2023-01-03T16:58:21.989Z,5.73
2023-01-03T17:01:00.241Z,5.77
2023-01-03T17:03:41.800Z,5.81
2023-01-03T17:06:38.013Z,5.81
2023-01-03T17:09:21.006Z,5.77
2023-01-03T17:11:58.480Z,5.80
2023-01-03T17:14:40.924Z,5.84
2023-01-03T17:17:23.039Z,5.89
2023-01-03T17:20:03.846Z,5.89
2023-01-03T17:22:43.948Z,5.89
2023-01-03T17:25:21.592Z,5.85
2023-01-03T17:28:03.035Z,5.79
2023-01-03T17:30:43.002Z,5.73
2023-01-03T17:33:20.688Z,5.75
2023-01-03T17:35:58.037Z,5.68
2023-01-03T17:38:37.170Z,5.67
2023-01-03T17:41:21.381Z,5.61
2023-01-03T17:43:59.834Z,5.60
2023-01-03T17:46:52.911Z,5.55
2023-01-03T17:49:31.380Z,5.56
2023-01-03T17:52:10.630Z,5.50
2023-01-03T17:54:48.052Z,5.53
2023-01-03T17:57:25.890Z,5.51
2023-01-03T18:00:06.100Z,5.50
2023-01-03T18:02:50.496Z,5.43
2023-01-03T18:05:31.560Z,5.49
2023-01-03T18:08:08.815Z,5.47
2023-01-03T18:10:47.525Z,5.49
2023-01-03T18:13:29.181Z,5.50
2023-01-03T18:16:07.735Z,5.56
2023-01-03T18:18:48.580Z,5.56
2023-01-03T18:21:29.789Z,5.59
2023-01-03T18:24:10.660Z,5.62
2023-01-03T18:26:53.270Z,5.63
2023-01-03T18:29:31.583Z,5.62
2023-01-03T18:32:27.795Z,5.67
2023-01-03T18:35:08.731Z,5.69
2023-01-03T18:37:47.514Z,5.67
2023-01-03T18:40:28.632Z,5.68
2023-01-03T18:43:16.977Z,5.67
2023-01-03T18:45:54.945Z,5.64
2023-01-03T18:48:33.085Z,5.68
2023-01-03T18:51:18.248Z,5.74
2023-01-03T18:54:00.832Z,5.78
2023-01-03T18:56:43.170Z,5.81
2023-01-03T18:59:25.733Z,5.84
2023-01-03T19:02:03.212Z,5.75
2023-01-03T19:04:42.919Z,5.76
2023-01-03T19:07:33.988Z,5.67
2023-01-03T19:10:24.339Z,5.75
2023-01-03T19:13:02.171Z,5.68
2023-01-03T19:15:39.508Z,5.67
2023-01-03T19:18:16.582Z,5.52
2023-01-03T19:20:54.852Z,5.50
2023-01-03T19:23:34.849Z,5.52
2023-01-03T19:26:29.440Z,5.48
2023-01-03T19:29:11.491Z,5.44
2023-01-03T19:31:51.767Z,5.43
2023-01-03T19:34:30.665Z,5.43
2023-01-03T19:37:09.588Z,5.40
2023-01-03T19:39:53.179Z,5.35
2023-01-03T19:42:44.231Z,5.32
2023-01-03T19:45:30.827Z,5.33
2023-01-03T19:48:22.798Z,5.37
2023-01-03T19:51:01.617Z,5.33
2023-01-03T19:53:42.998Z,5.37
2023-01-03T19:56:27.135Z,5.39
2023-01-03T19:59:09.960Z,5.34
2023-01-03T20:02:22.794Z,5.34
2023-01-03T20:04:52.618Z,5.33
2023-01-03T20:07:31.847Z,5.32
2023-01-03T20:10:17.203Z,5.32
2023-01-03T20:13:02.383Z,5.30
2023-01-03T20:15:47.856Z,5.31
2023-01-03T20:18:32.387Z,5.33
2023-01-03T20:21:22.900Z,5.29
2023-01-03T20:24:06.099Z,5.24
2023-01-03T20:26:46.189Z,5.25
2023-01-03T20:29:33.531Z,5.26
2023-01-03T20:32:15.357Z,5.25
2023-01-03T20:34:53.287Z,5.21
2023-01-03T20:37:33.462Z,5.21
2023-01-03T20:40:20.352Z,5.21
2023-01-03T20:43:02.927Z,5.23
2023-01-03T20:45:44.017Z,5.25
2023-01-03T20:48:26.147Z,5.27
2023-01-03T20:51:04.217Z,5.27
2023-01-03T20:53:47.891Z,5.29
2023-01-03T20:56:33.139Z,5.32
2023-01-03T20:59:17.621Z,5.29
2023-01-03T21:01:58.126Z,5.31
2023-01-03T21:04:38.099Z,5.35
2023-01-03T21:07:51.677Z,5.37
2023-01-03T21:10:29.887Z,5.39
2023-01-03T21:13:08.043Z,5.43
2023-01-03T21:15:46.990Z,5.46
2023-01-03T21:18:29.182Z,5.51
2023-01-03T21:21:23.342Z,5.54
2023-01-03T21:24:03.997Z,5.53
2023-01-03T21:26:42.282Z,5.53
2023-01-03T21:29:22.824Z,5.50
2023-01-03T21:32:02.004Z,5.55
2023-01-03T21:34:42.306Z,5.58
2023-01-03T21:37:21.112Z,5.59
2023-01-03T21:40:00.007Z,5.58
2023-01-03T21:42:49.652Z,5.57
2023-01-03T21:45:26.897Z,5.61
2023-01-03T21:48:07.214Z,5.56
2023-01-03T21:50:50.309Z,5.59
2023-01-03T21:53:28.159Z,5.60
2023-01-03T21:56:09.264Z,5.63
2023-01-03T21:58:46.858Z,5.58
2023-01-03T22:01:26.604Z,5.65
2023-01-03T22:04:17.092Z,5.67
2023-01-03T22:07:01.372Z,5.71
2023-01-03T22:09:51.512Z,5.71
2023-01-03T22:12:28.647Z,5.69
2023-01-03T22:15:06.856Z,5.73
2023-01-03T22:17:45.252Z,5.66
